createdAt,value
2023-02-08T00:00:13.242Z,1038.51
2023-02-08T00:01:13.540Z,1038.50
2023-02-08T00:02:13.500Z,1038.55
2023-02-08T00:03:13.485Z,1038.51
2023-02-08T00:04:18.546Z,1038.50
2023-02-08T00:05:13.499Z,1038.48
2023-02-08T00:06:13.704Z,1038.51
2023-02-08T00:07:13.646Z,1038.48
2023-02-08T00:08:13.556Z,1038.53
2023-02-08T00:09:13.631Z,1038.53
2023-02-08T00:10:13.979Z,1038.53
2023-02-08T00:11:13.200Z,1038.53
2023-02-08T00:12:13.442Z,1038.55
2023-02-08T00:13:13.749Z,1038.52
2023-02-08T00:14:13.976Z,1038.54
2023-02-08T00:15:13.164Z,1038.52
2023-02-08T00:16:13.111Z,1038.51
2023-02-08T00:17:13.580Z,1038.56
2023-02-08T00:18:13.564Z,1038.53
2023-02-08T00:19:13.556Z,1038.53
2023-02-08T00:20:13.523Z,1038.54
2023-02-08T00:21:13.710Z,1038.52
2023-02-08T00:22:13.731Z,1038.55
2023-02-08T00:23:13.967Z,1038.49
2023-02-08T00:24:13.176Z,1038.50
2023-02-08T00:25:13.188Z,1038.50
2023-02-08T00:26:13.241Z,1038.47
2023-02-08T00:27:13.213Z,1038.50
2023-02-08T00:28:13.850Z,1038.45
2023-02-08T00:29:13.967Z,1038.46
2023-02-08T00:30:12.989Z,1038.48
2023-02-08T00:31:13.470Z,1038.48
2023-02-08T00:32:13.681Z,1038.51
2023-02-08T00:33:14.022Z,1038.49
2023-02-08T00:34:13.194Z,1038.48
2023-02-08T00:35:13.480Z,1038.50
2023-02-08T00:36:13.782Z,1038.46
2023-02-08T00:37:14.175Z,1038.45
2023-02-08T00:38:13.201Z,1038.46
2023-02-08T00:39:13.128Z,1038.47
2023-02-08T00:40:13.150Z,1038.42
2023-02-08T00:41:13.106Z,1038.44
2023-02-08T00:42:12.964Z,1038.43
2023-02-08T00:43:13.253Z,1038.42
2023-02-08T00:44:13.331Z,1038.41
2023-02-08T00:45:13.613Z,1038.37
2023-02-08T00:46:13.541Z,1038.39
2023-02-08T00:47:13.438Z,1038.39
2023-02-08T00:48:13.524Z,1038.38
2023-02-08T00:49:14.783Z,1038.39
2023-02-08T00:50:14.214Z,1038.37
2023-02-08T00:51:13.587Z,1038.36
2023-02-08T00:52:13.722Z,1038.37
2023-02-08T00:53:13.660Z,1038.40
2023-02-08T00:54:13.871Z,1038.36
2023-02-08T00:55:13.911Z,1038.33
2023-02-08T00:56:12.806Z,1038.35
2023-02-08T00:57:13.961Z,1038.30
2023-02-08T00:58:12.951Z,1038.30
2023-02-08T00:59:13.043Z,1038.27
2023-02-08T01:00:13.332Z,1038.23
2023-02-08T01:01:13.410Z,1038.26
2023-02-08T01:02:13.411Z,1038.22
2023-02-08T01:03:13.873Z,1038.23
2023-02-08T01:04:14.934Z,1038.24
2023-02-08T01:05:13.154Z,1038.19
2023-02-08T01:06:14.267Z,1038.15
2023-02-08T01:07:13.217Z,1038.19
2023-02-08T01:08:13.242Z,1038.16
2023-02-08T01:10:13.207Z,1038.17
2023-02-08T01:11:13.234Z,1038.18
2023-02-08T01:12:13.202Z,1038.21
2023-02-08T01:13:13.205Z,1038.22
2023-02-08T01:14:13.490Z,1038.21
2023-02-08T01:15:13.543Z,1038.22
2023-02-08T01:16:13.986Z,1038.21
2023-02-08T01:17:12.976Z,1038.19
2023-02-08T01:18:12.904Z,1038.20
2023-02-08T01:19:13.206Z,1038.17
2023-02-08T01:20:13.306Z,1038.17
2023-02-08T01:21:13.335Z,1038.14
2023-02-08T01:22:13.269Z,1038.20
2023-02-08T01:23:30.107Z,1038.20
2023-02-08T01:24:13.080Z,1038.21
2023-02-08T01:25:13.164Z,1038.21
2023-02-08T01:26:13.424Z,1038.20
2023-02-08T01:27:13.806Z,1038.21
2023-02-08T01:28:13.897Z,1038.19
2023-02-08T01:29:13.025Z,1038.17
2023-02-08T01:30:13.111Z,1038.16
2023-02-08T01:31:13.124Z,1038.14
2023-02-08T01:32:13.641Z,1038.15
2023-02-08T01:33:13.782Z,1038.14
2023-02-08T01:34:14.106Z,1038.21
2023-02-08T01:35:13.213Z,1038.18
2023-02-08T01:36:13.327Z,1038.18
2023-02-08T01:37:13.850Z,1038.19
2023-02-08T01:38:14.095Z,1038.15
2023-02-08T01:39:13.003Z,1038.14
2023-02-08T01:40:13.091Z,1038.12
2023-02-08T01:41:13.114Z,1038.15
2023-02-08T01:42:13.061Z,1038.15
2023-02-08T01:43:13.231Z,1038.18
2023-02-08T01:44:13.174Z,1038.18
2023-02-08T01:45:13.485Z,1038.17
2023-02-08T01:46:13.418Z,1038.13
2023-02-08T01:47:13.498Z,1038.16
2023-02-08T01:48:13.794Z,1038.16
2023-02-08T01:49:14.191Z,1038.12
2023-02-08T01:50:13.110Z,1038.11
2023-02-08T01:51:13.392Z,1038.07
2023-02-08T01:52:13.344Z,1038.04
2023-02-08T01:53:13.413Z,1038.10
2023-02-08T01:54:13.409Z,1038.06
2023-02-08T01:55:13.713Z,1038.04
2023-02-08T01:56:13.539Z,1038.01
2023-02-08T01:57:13.449Z,1037.99
2023-02-08T01:58:13.319Z,1038.03
2023-02-08T01:59:13.311Z,1038.03
2023-02-08T02:00:13.343Z,1038.03
2023-02-08T02:01:13.485Z,1038.04
2023-02-08T02:02:13.807Z,1038.03
2023-02-08T02:03:13.781Z,1038.02
2023-02-08T02:04:13.709Z,1038.04
2023-02-08T02:05:13.603Z,1037.97
2023-02-08T02:06:13.856Z,1037.97
2023-02-08T02:07:14.364Z,1037.97
2023-02-08T02:08:13.272Z,1037.95
2023-02-08T02:09:13.231Z,1037.93
2023-02-08T02:10:13.403Z,1037.91
2023-02-08T02:11:13.540Z,1037.92
2023-02-08T02:12:13.608Z,1037.90
2023-02-08T02:13:13.814Z,1037.92
2023-02-08T02:14:13.976Z,1037.87
2023-02-08T02:15:13.015Z,1037.89
2023-02-08T02:16:13.085Z,1037.86
2023-02-08T02:17:13.010Z,1037.91
2023-02-08T02:18:13.196Z,1037.92
2023-02-08T02:19:14.235Z,1037.94
2023-02-08T02:20:13.475Z,1037.97
2023-02-08T02:21:13.453Z,1037.97
2023-02-08T02:22:13.627Z,1037.91
2023-02-08T02:23:13.554Z,1037.93
2023-02-08T02:24:13.764Z,1037.95
2023-02-08T02:25:13.834Z,1037.91
2023-02-08T02:26:13.704Z,1037.90
2023-02-08T02:27:13.648Z,1037.90
2023-02-08T02:28:13.701Z,1037.91
2023-02-08T02:29:13.857Z,1037.94
2023-02-08T02:30:13.990Z,1037.93
2023-02-08T02:31:13.186Z,1037.95
2023-02-08T02:32:13.279Z,1037.93
2023-02-08T02:33:13.656Z,1037.95
2023-02-08T02:34:13.914Z,1037.93
2023-02-08T02:35:12.935Z,1037.97
2023-02-08T02:36:12.903Z,1037.96
2023-02-08T02:37:13.165Z,1037.91
2023-02-08T02:38:13.482Z,1037.94
2023-02-08T02:39:13.686Z,1037.91
2023-02-08T02:40:13.691Z,1037.95
2023-02-08T02:41:13.816Z,1037.84
2023-02-08T02:42:13.957Z,1037.89
2023-02-08T02:43:13.053Z,1037.85
2023-02-08T02:44:12.965Z,1037.84
2023-02-08T02:45:13.061Z,1037.84
2023-02-08T02:46:13.028Z,1037.85
2023-02-08T02:47:13.368Z,1037.80
2023-02-08T02:48:13.809Z,1037.78
2023-02-08T02:49:14.042Z,1037.80
2023-02-08T02:50:12.956Z,1037.82
2023-02-08T02:51:13.130Z,1037.79
2023-02-08T02:52:13.059Z,1037.78
2023-02-08T02:53:13.130Z,1037.76
2023-02-08T02:54:13.418Z,1037.73
2023-02-08T02:55:13.341Z,1037.72
2023-02-08T02:56:13.240Z,1037.70
2023-02-08T02:57:13.226Z,1037.70
2023-02-08T02:58:13.181Z,1037.68
2023-02-08T02:59:13.105Z,1037.67
2023-02-08T03:00:13.192Z,1037.65
2023-02-08T03:01:13.462Z,1037.67
2023-02-08T03:02:13.464Z,1037.63
2023-02-08T03:03:13.620Z,1037.64
2023-02-08T03:04:13.879Z,1037.62
2023-02-08T03:05:14.046Z,1037.60
2023-02-08T03:06:12.919Z,1037.63
2023-02-08T03:07:13.000Z,1037.62
2023-02-08T03:08:13.107Z,1037.63
2023-02-08T03:09:13.058Z,1037.62
2023-02-08T03:10:13.277Z,1037.61
2023-02-08T03:11:13.837Z,1037.69
2023-02-08T03:12:14.086Z,1037.67
2023-02-08T03:13:13.488Z,1037.65
2023-02-08T03:14:13.616Z,1037.69
2023-02-08T03:15:13.765Z,1037.67
2023-02-08T03:16:14.040Z,1037.67
2023-02-08T03:17:13.125Z,1037.69
2023-02-08T03:18:13.467Z,1037.67
2023-02-08T03:19:13.577Z,1037.66
2023-02-08T03:20:13.419Z,1037.67
2023-02-08T03:21:13.430Z,1037.66
2023-02-08T03:22:18.530Z,1037.65
2023-02-08T03:23:13.853Z,1037.65
2023-02-08T03:24:13.927Z,1037.66
2023-02-08T03:25:12.868Z,1037.69
2023-02-08T03:26:13.790Z,1037.71
2023-02-08T03:27:14.002Z,1037.70
2023-02-08T03:28:12.957Z,1037.69
2023-02-08T03:29:12.878Z,1037.71
2023-02-08T03:31:14.093Z,1037.68
2023-02-08T03:32:13.505Z,1037.75
2023-02-08T03:33:13.623Z,1037.71
2023-02-08T03:34:41.336Z,1037.67
2023-02-08T03:35:13.600Z,1037.68
2023-02-08T03:36:13.643Z,1037.69
2023-02-08T03:38:13.293Z,1037.70
2023-02-08T03:39:13.117Z,1037.74
2023-02-08T03:40:18.089Z,1037.72
2023-02-08T03:41:28.163Z,1037.71
2023-02-08T03:42:13.322Z,1037.67
2023-02-08T03:43:23.354Z,1037.70
2023-02-08T03:44:13.317Z,1037.72
2023-02-08T03:45:13.292Z,1037.68
2023-02-08T03:46:13.215Z,1037.67
2023-02-08T03:47:13.532Z,1037.70
2023-02-08T03:48:46.247Z,1037.66
2023-02-08T03:49:35.653Z,1037.68
2023-02-08T03:50:13.738Z,1037.71
2023-02-08T03:51:13.663Z,1037.68
2023-02-08T03:52:13.481Z,1037.67
2023-02-08T03:53:13.407Z,1037.66
2023-02-08T03:54:33.779Z,1037.69
2023-02-08T03:55:13.949Z,1037.70
2023-02-08T03:56:18.535Z,1037.71
2023-02-08T03:57:13.405Z,1037.75
2023-02-08T03:58:25.708Z,1037.70
2023-02-08T03:59:14.054Z,1037.73
2023-02-08T04:00:33.211Z,1037.73
2023-02-08T04:01:13.140Z,1037.72
2023-02-08T04:03:26.061Z,1037.76
2023-02-08T04:04:13.169Z,1037.75
2023-02-08T04:05:13.167Z,1037.75
2023-02-08T04:06:13.458Z,1037.77
2023-02-08T04:07:13.876Z,1037.79
2023-02-08T04:08:14.193Z,1037.76
2023-02-08T04:09:13.335Z,1037.72
2023-02-08T04:10:13.609Z,1037.74
2023-02-08T04:11:13.623Z,1037.75
2023-02-08T04:12:13.663Z,1037.76
2023-02-08T04:13:13.998Z,1037.76
2023-02-08T04:14:50.938Z,1037.75
2023-02-08T04:15:52.435Z,1037.79
2023-02-08T04:16:13.834Z,1037.75
2023-02-08T04:17:14.008Z,1037.76
2023-02-08T04:18:13.313Z,1037.74
2023-02-08T04:19:13.529Z,1037.79
2023-02-08T04:20:13.637Z,1037.75
2023-02-08T04:21:13.719Z,1037.76
2023-02-08T04:22:14.170Z,1037.81
2023-02-08T04:23:31.322Z,1037.81
2023-02-08T04:24:13.540Z,1037.81
2023-02-08T04:25:19.018Z,1037.75
2023-02-08T04:26:13.056Z,1037.74
2023-02-08T04:27:13.303Z,1037.73
2023-02-08T04:28:14.796Z,1037.73
2023-02-08T04:29:14.433Z,1037.74
2023-02-08T04:30:13.770Z,1037.74
2023-02-08T04:31:14.343Z,1037.75
2023-02-08T04:32:19.078Z,1037.75
2023-02-08T04:33:13.143Z,1037.75
2023-02-08T04:34:39.427Z,1037.75
2023-02-08T04:35:13.001Z,1037.80
2023-02-08T04:36:13.388Z,1037.79
2023-02-08T04:38:13.566Z,1037.79
2023-02-08T04:39:13.785Z,1037.84
2023-02-08T04:40:59.736Z,1037.83
2023-02-08T04:41:13.655Z,1037.81
2023-02-08T04:42:13.587Z,1037.84
2023-02-08T04:43:13.752Z,1037.80
2023-02-08T04:44:28.685Z,1037.79
2023-02-08T04:45:13.600Z,1037.83
2023-02-08T04:46:13.862Z,1037.84
2023-02-08T04:47:13.183Z,1037.80
2023-02-08T04:48:13.099Z,1037.78
2023-02-08T04:49:12.941Z,1037.78
2023-02-08T04:50:12.913Z,1037.77
2023-02-08T04:51:12.776Z,1037.78
2023-02-08T04:52:13.698Z,1037.80
2023-02-08T04:53:28.637Z,1037.81
2023-02-08T04:54:13.916Z,1037.84
2023-02-08T04:55:13.222Z,1037.85
2023-02-08T04:56:13.864Z,1037.87
2023-02-08T04:57:14.146Z,1037.89
2023-02-08T04:58:13.938Z,1037.93
2023-02-08T04:59:13.533Z,1037.93
2023-02-08T05:00:13.510Z,1037.94
2023-02-08T05:01:13.811Z,1037.92
2023-02-08T05:02:14.182Z,1037.89
2023-02-08T05:03:26.154Z,1037.88
2023-02-08T05:04:13.363Z,1037.91
2023-02-08T05:05:13.316Z,1037.89
2023-02-08T05:06:13.297Z,1037.84
2023-02-08T05:07:13.601Z,1037.89
2023-02-08T05:08:13.519Z,1037.92
2023-02-08T05:09:13.527Z,1037.91
2023-02-08T05:10:13.504Z,1037.87
2023-02-08T05:11:13.833Z,1037.91
2023-02-08T05:12:13.943Z,1037.90
2023-02-08T05:13:13.265Z,1037.90
2023-02-08T05:14:13.646Z,1037.87
2023-02-08T05:15:13.742Z,1037.87
2023-02-08T05:16:13.836Z,1037.86
2023-02-08T05:17:13.901Z,1037.82
2023-02-08T05:18:12.944Z,1037.81
2023-02-08T05:19:13.319Z,1037.85
2023-02-08T05:20:13.285Z,1037.89
2023-02-08T05:21:13.858Z,1037.88
2023-02-08T05:22:13.895Z,1037.95
2023-02-08T05:23:14.150Z,1037.93
2023-02-08T05:24:13.174Z,1037.94
2023-02-08T05:25:13.233Z,1037.95
2023-02-08T05:26:14.127Z,1037.99
2023-02-08T05:27:13.243Z,1037.95
2023-02-08T05:28:13.315Z,1037.96
2023-02-08T05:29:13.296Z,1037.94
2023-02-08T05:30:13.501Z,1037.95
2023-02-08T05:31:13.774Z,1037.90
2023-02-08T05:32:14.295Z,1037.92
2023-02-08T05:33:13.453Z,1037.92
2023-02-08T05:34:13.695Z,1037.90
2023-02-08T05:35:13.638Z,1037.90
2023-02-08T05:36:14.058Z,1037.89
2023-02-08T05:37:13.538Z,1037.92
2023-02-08T05:38:13.699Z,1037.91
2023-02-08T05:39:14.177Z,1037.91
2023-02-08T05:40:13.291Z,1037.90
2023-02-08T05:41:13.636Z,1037.89
2023-02-08T05:42:13.799Z,1037.87
2023-02-08T05:43:13.834Z,1037.89
2023-02-08T05:44:14.202Z,1037.92
2023-02-08T05:45:13.402Z,1037.95
2023-02-08T05:46:13.787Z,1037.96
2023-02-08T05:47:13.793Z,1037.96
2023-02-08T05:48:13.735Z,1037.98
2023-02-08T05:49:14.193Z,1037.97
2023-02-08T05:50:13.096Z,1038.02
2023-02-08T05:51:13.535Z,1038.00
2023-02-08T05:52:14.144Z,1038.00
2023-02-08T05:53:15.101Z,1037.97
2023-02-08T05:54:14.205Z,1037.95
2023-02-08T05:55:13.173Z,1037.96
2023-02-08T05:56:13.251Z,1037.97
2023-02-08T05:58:19.177Z,1037.95
2023-02-08T05:59:13.101Z,1037.98
2023-02-08T06:00:13.057Z,1037.95
2023-02-08T06:01:12.943Z,1037.97
2023-02-08T06:02:13.050Z,1037.95
2023-02-08T06:03:13.361Z,1037.95
2023-02-08T06:04:13.306Z,1037.99
2023-02-08T06:05:13.659Z,1037.95
2023-02-08T06:06:13.627Z,1037.97
2023-02-08T06:07:14.852Z,1038.01
2023-02-08T06:08:14.011Z,1038.01
2023-02-08T06:09:13.097Z,1038.03
2023-02-08T06:10:13.315Z,1038.01
2023-02-08T06:11:13.258Z,1038.01
2023-02-08T06:12:13.450Z,1038.03
2023-02-08T06:13:13.363Z,1038.00
2023-02-08T06:14:13.644Z,1038.01
2023-02-08T06:15:13.784Z,1038.01
2023-02-08T06:16:13.862Z,1038.01
2023-02-08T06:17:15.376Z,1038.01
2023-02-08T06:18:13.369Z,1038.01
2023-02-08T06:19:13.457Z,1038.05
2023-02-08T06:20:13.704Z,1038.01
2023-02-08T06:21:14.107Z,1038.06
2023-02-08T06:22:13.332Z,1038.04
2023-02-08T06:23:13.278Z,1038.11
2023-02-08T06:24:13.562Z,1038.07
2023-02-08T06:25:13.606Z,1038.07
2023-02-08T06:26:13.864Z,1038.04
2023-02-08T06:27:14.253Z,1038.02
2023-02-08T06:28:13.244Z,1037.99
2023-02-08T06:29:13.457Z,1038.07
2023-02-08T06:30:13.732Z,1038.03
2023-02-08T06:31:13.783Z,1037.98
2023-02-08T06:32:14.048Z,1037.96
2023-02-08T06:33:15.685Z,1037.95
2023-02-08T06:34:13.003Z,1037.95
2023-02-08T06:35:12.883Z,1037.96
2023-02-08T06:36:12.835Z,1037.89
2023-02-08T06:37:14.164Z,1037.93
2023-02-08T06:38:13.107Z,1037.93
2023-02-08T06:39:13.091Z,1037.93
2023-02-08T06:40:13.343Z,1037.95
2023-02-08T06:41:13.319Z,1037.91
2023-02-08T06:42:13.519Z,1037.91
2023-02-08T06:43:13.460Z,1037.90
2023-02-08T06:44:13.690Z,1037.88
2023-02-08T06:45:13.839Z,1037.91
2023-02-08T06:46:13.751Z,1037.89
2023-02-08T06:47:13.820Z,1037.85
2023-02-08T06:48:14.102Z,1037.87
2023-02-08T06:49:13.257Z,1037.86
2023-02-08T06:50:13.778Z,1037.82
2023-02-08T06:51:15.093Z,1037.84
2023-02-08T06:52:13.501Z,1037.81
2023-02-08T06:53:13.524Z,1037.83
2023-02-08T06:54:13.621Z,1037.80
2023-02-08T06:55:13.467Z,1037.82
2023-02-08T06:56:13.400Z,1037.80
2023-02-08T06:57:13.368Z,1037.78
2023-02-08T06:58:13.409Z,1037.79
2023-02-08T06:59:13.658Z,1037.78
2023-02-08T07:00:13.877Z,1037.78
2023-02-08T07:01:13.277Z,1037.79
2023-02-08T07:02:13.457Z,1037.83
2023-02-08T07:03:13.445Z,1037.84
2023-02-08T07:04:13.563Z,1037.83
2023-02-08T07:05:13.589Z,1037.80
2023-02-08T07:06:13.432Z,1037.81
2023-02-08T07:07:13.571Z,1037.79
2023-02-08T07:08:13.926Z,1037.81
2023-02-08T07:09:13.384Z,1037.77
2023-02-08T07:10:13.426Z,1037.78
2023-02-08T07:11:13.562Z,1037.73
2023-02-08T07:12:13.519Z,1037.70
2023-02-08T07:13:13.545Z,1037.71
2023-02-08T07:14:13.834Z,1037.73
2023-02-08T07:15:13.979Z,1037.68
2023-02-08T07:16:13.026Z,1037.66
2023-02-08T07:17:13.202Z,1037.68
2023-02-08T07:18:13.206Z,1037.70
2023-02-08T07:19:13.388Z,1037.70
2023-02-08T07:20:13.316Z,1037.66
2023-02-08T07:21:13.388Z,1037.64
2023-02-08T07:22:13.441Z,1037.69
2023-02-08T07:23:13.272Z,1037.68
2023-02-08T07:24:13.408Z,1037.66
2023-02-08T07:25:13.381Z,1037.68
2023-02-08T07:26:13.391Z,1037.66
2023-02-08T07:27:13.479Z,1037.66
2023-02-08T07:28:13.706Z,1037.68
2023-02-08T07:29:13.688Z,1037.66
2023-02-08T07:31:13.412Z,1037.61
2023-02-08T07:32:13.464Z,1037.62
2023-02-08T07:33:13.457Z,1037.64
2023-02-08T07:34:13.412Z,1037.62
2023-02-08T07:35:13.362Z,1037.60
2023-02-08T07:36:13.666Z,1037.63
2023-02-08T07:37:13.609Z,1037.61
2023-02-08T07:38:13.910Z,1037.60
2023-02-08T07:39:13.405Z,1037.60
2023-02-08T07:40:13.416Z,1037.59
2023-02-08T07:41:13.666Z,1037.59
2023-02-08T07:42:13.648Z,1037.59
2023-02-08T07:43:13.744Z,1037.60
2023-02-08T07:44:13.686Z,1037.58
2023-02-08T07:45:13.662Z,1037.61
2023-02-08T07:46:13.927Z,1037.61
2023-02-08T07:47:13.052Z,1037.61
2023-02-08T07:48:13.230Z,1037.63
2023-02-08T07:49:13.373Z,1037.62
2023-02-08T07:50:13.390Z,1037.60
2023-02-08T07:51:13.475Z,1037.62
2023-02-08T07:52:19.678Z,1037.63
2023-02-08T07:53:14.031Z,1037.65
2023-02-08T07:54:13.382Z,1037.63
2023-02-08T07:55:13.663Z,1037.61
2023-02-08T07:56:13.836Z,1037.64
2023-02-08T07:57:18.828Z,1037.65
2023-02-08T07:58:13.783Z,1037.64
2023-02-08T07:59:13.991Z,1037.63
2023-02-08T08:00:13.101Z,1037.65
2023-02-08T08:01:22.063Z,1037.64
2023-02-08T08:02:13.882Z,1037.66
2023-02-08T08:03:13.870Z,1037.65
2023-02-08T08:04:14.069Z,1037.69
2023-02-08T08:05:13.003Z,1037.69
2023-02-08T08:06:13.094Z,1037.68
2023-02-08T08:07:13.321Z,1037.67
2023-02-08T08:08:13.617Z,1037.68
2023-02-08T08:09:13.530Z,1037.68
2023-02-08T08:10:13.512Z,1037.64
2023-02-08T08:11:29.793Z,1037.64
2023-02-08T08:13:13.429Z,1037.65
2023-02-08T08:14:13.527Z,1037.67
2023-02-08T08:15:13.432Z,1037.63
2023-02-08T08:16:13.526Z,1037.65
2023-02-08T08:17:13.718Z,1037.65
2023-02-08T08:18:13.571Z,1037.68
2023-02-08T08:19:13.682Z,1037.65
2023-02-08T08:20:13.577Z,1037.64
2023-02-08T08:21:13.561Z,1037.66
2023-02-08T08:22:13.432Z,1037.67
2023-02-08T08:23:13.416Z,1037.71
2023-02-08T08:24:13.582Z,1037.67
2023-02-08T08:25:13.508Z,1037.70
2023-02-08T08:26:13.413Z,1037.70
2023-02-08T08:27:13.484Z,1037.69
2023-02-08T08:28:13.653Z,1037.66
2023-02-08T08:29:13.671Z,1037.65
2023-02-08T08:30:13.829Z,1037.66
2023-02-08T08:31:13.817Z,1037.66
2023-02-08T08:32:14.006Z,1037.66
2023-02-08T08:33:13.044Z,1037.67
2023-02-08T08:34:13.038Z,1037.71
2023-02-08T08:35:13.197Z,1037.72
2023-02-08T08:36:13.441Z,1037.68
2023-02-08T08:37:18.778Z,1037.67
2023-02-08T08:38:13.672Z,1037.72
2023-02-08T08:39:18.614Z,1037.67
2023-02-08T08:40:13.544Z,1037.69
2023-02-08T08:41:13.480Z,1037.69
2023-02-08T08:42:13.434Z,1037.66
2023-02-08T08:43:13.301Z,1037.68
2023-02-08T08:44:13.903Z,1037.66
2023-02-08T08:45:12.863Z,1037.66
2023-02-08T08:46:13.837Z,1037.66
2023-02-08T08:47:14.194Z,1037.64
2023-02-08T08:48:13.597Z,1037.65
2023-02-08T08:49:13.665Z,1037.66
2023-02-08T08:50:13.678Z,1037.67
2023-02-08T08:51:18.589Z,1037.66
2023-02-08T08:52:13.824Z,1037.63
2023-02-08T08:53:13.824Z,1037.62
2023-02-08T08:54:13.739Z,1037.63
2023-02-08T08:55:13.625Z,1037.61
2023-02-08T08:56:13.581Z,1037.63
2023-02-08T08:57:13.528Z,1037.60
2023-02-08T08:58:14.189Z,1037.61
2023-02-08T08:59:13.617Z,1037.61
2023-02-08T09:00:13.948Z,1037.60
2023-02-08T09:01:13.054Z,1037.55
2023-02-08T09:02:13.502Z,1037.57
2023-02-08T09:03:14.810Z,1037.55
2023-02-08T09:04:14.118Z,1037.54
2023-02-08T09:05:13.279Z,1037.52
2023-02-08T09:06:13.308Z,1037.53
2023-02-08T09:07:13.251Z,1037.50
2023-02-08T09:08:13.399Z,1037.50
2023-02-08T09:09:13.519Z,1037.54
2023-02-08T09:10:13.567Z,1037.56
2023-02-08T09:11:13.485Z,1037.54
2023-02-08T09:12:13.393Z,1037.57
2023-02-08T09:13:13.499Z,1037.54
2023-02-08T09:14:13.594Z,1037.54
2023-02-08T09:15:13.888Z,1037.53
2023-02-08T09:16:12.964Z,1037.52
2023-02-08T09:17:12.966Z,1037.53
2023-02-08T09:18:13.120Z,1037.54
2023-02-08T09:19:13.326Z,1037.52
2023-02-08T09:20:13.280Z,1037.57
2023-02-08T09:21:13.211Z,1037.55
2023-02-08T09:22:13.286Z,1037.59
2023-02-08T09:23:13.269Z,1037.59
2023-02-08T09:24:14.684Z,1037.56
2023-02-08T09:25:13.644Z,1037.60
2023-02-08T09:26:13.619Z,1037.52
2023-02-08T09:27:13.547Z,1037.53
2023-02-08T09:28:13.510Z,1037.53
2023-02-08T09:29:13.548Z,1037.48
2023-02-08T09:30:13.424Z,1037.41
2023-02-08T09:31:13.354Z,1037.43
2023-02-08T09:32:13.683Z,1037.42
2023-02-08T09:33:13.645Z,1037.41
2023-02-08T09:34:13.524Z,1037.45
2023-02-08T09:35:13.556Z,1037.47
2023-02-08T09:36:13.584Z,1037.46
2023-02-08T09:37:13.477Z,1037.50
2023-02-08T09:38:13.478Z,1037.48
2023-02-08T09:39:13.569Z,1037.51
2023-02-08T09:40:13.406Z,1037.50
2023-02-08T09:41:13.369Z,1037.52
2023-02-08T09:42:13.254Z,1037.55
2023-02-08T09:43:13.168Z,1037.55
2023-02-08T09:44:13.443Z,1037.59
2023-02-08T09:45:14.686Z,1037.56
2023-02-08T09:46:13.701Z,1037.58
2023-02-08T09:47:13.835Z,1037.49
2023-02-08T09:48:13.789Z,1037.56
2023-02-08T09:49:13.742Z,1037.52
2023-02-08T09:50:14.000Z,1037.57
2023-02-08T09:51:12.986Z,1037.57
2023-02-08T09:52:12.887Z,1037.58
2023-02-08T09:53:13.787Z,1037.57
2023-02-08T09:54:13.677Z,1037.59
2023-02-08T09:55:13.741Z,1037.58
2023-02-08T09:56:13.916Z,1037.60
2023-02-08T09:57:12.931Z,1037.63
2023-02-08T09:58:12.931Z,1037.64
2023-02-08T09:59:12.854Z,1037.65
2023-02-08T10:00:13.800Z,1037.62
2023-02-08T10:01:13.944Z,1037.67
2023-02-08T10:02:13.246Z,1037.68
2023-02-08T10:03:13.360Z,1037.69
2023-02-08T10:04:14.713Z,1037.70
2023-02-08T10:05:13.788Z,1037.67
2023-02-08T10:06:13.732Z,1037.75
2023-02-08T10:07:14.015Z,1037.72
2023-02-08T10:08:13.204Z,1037.75
2023-02-08T10:09:13.582Z,1037.74
2023-02-08T10:10:14.217Z,1037.71
2023-02-08T10:11:13.200Z,1037.73
2023-02-08T10:12:13.669Z,1037.76
2023-02-08T10:13:13.774Z,1037.74
2023-02-08T10:14:14.026Z,1037.76
2023-02-08T10:15:12.915Z,1037.77
2023-02-08T10:16:12.879Z,1037.73
2023-02-08T10:17:13.945Z,1037.75
2023-02-08T10:18:13.160Z,1037.75
2023-02-08T10:19:13.173Z,1037.78
2023-02-08T10:20:13.259Z,1037.75
2023-02-08T10:21:13.241Z,1037.78
2023-02-08T10:22:13.287Z,1037.75
2023-02-08T10:23:13.558Z,1037.75
2023-02-08T10:24:14.426Z,1037.72
2023-02-08T10:25:13.479Z,1037.76
2023-02-08T10:26:13.715Z,1037.76
2023-02-08T10:27:18.848Z,1037.73
2023-02-08T10:28:13.961Z,1037.71
2023-02-08T10:29:17.878Z,1037.67
2023-02-08T10:30:12.860Z,1037.67
2023-02-08T10:31:14.015Z,1037.65
2023-02-08T10:32:13.426Z,1037.69
2023-02-08T10:33:13.553Z,1037.69
2023-02-08T10:34:13.941Z,1037.70
2023-02-08T10:35:12.856Z,1037.70
2023-02-08T10:36:13.942Z,1037.70
2023-02-08T10:37:13.146Z,1037.64
2023-02-08T10:38:13.286Z,1037.68
2023-02-08T10:39:13.496Z,1037.67
2023-02-08T10:40:13.499Z,1037.64
2023-02-08T10:41:13.792Z,1037.68
2023-02-08T10:42:12.982Z,1037.64
2023-02-08T10:43:12.935Z,1037.64
2023-02-08T10:44:12.848Z,1037.64
2023-02-08T10:45:23.917Z,1037.63
2023-02-08T10:46:13.474Z,1037.66
2023-02-08T10:47:18.825Z,1037.64
2023-02-08T10:48:19.585Z,1037.66
2023-02-08T10:49:13.650Z,1037.67
2023-02-08T10:50:13.898Z,1037.63
2023-02-08T10:51:12.941Z,1037.66
2023-02-08T10:52:13.254Z,1037.65
2023-02-08T10:53:13.323Z,1037.68
2023-02-08T10:54:13.667Z,1037.69
2023-02-08T10:55:13.942Z,1037.67
2023-02-08T10:56:12.955Z,1037.64
2023-02-08T10:57:13.201Z,1037.64
2023-02-08T10:58:13.520Z,1037.60
2023-02-08T10:59:13.636Z,1037.53
2023-02-08T11:00:14.223Z,1037.50
2023-02-08T11:01:13.741Z,1037.53
2023-02-08T11:02:13.911Z,1037.49
2023-02-08T11:03:13.020Z,1037.52
2023-02-08T11:04:12.954Z,1037.53
2023-02-08T11:05:13.089Z,1037.52
2023-02-08T11:06:13.095Z,1037.44
2023-02-08T11:07:13.024Z,1037.41
2023-02-08T11:08:13.573Z,1037.40
2023-02-08T11:09:15.070Z,1037.40
2023-02-08T11:10:12.952Z,1037.36
2023-02-08T11:11:13.022Z,1037.28
2023-02-08T11:12:28.143Z,1037.29
2023-02-08T11:13:28.785Z,1037.32
2023-02-08T11:14:13.839Z,1037.29
2023-02-08T11:15:14.020Z,1037.31
2023-02-08T11:16:13.003Z,1037.33
2023-02-08T11:17:13.267Z,1037.36
2023-02-08T11:18:13.123Z,1037.30
2023-02-08T11:19:13.019Z,1037.34
2023-02-08T11:20:13.166Z,1037.30
2023-02-08T11:21:13.262Z,1037.29
2023-02-08T11:22:13.208Z,1037.24
2023-02-08T11:23:13.200Z,1037.17
2023-02-08T11:24:13.693Z,1037.20
2023-02-08T11:25:13.622Z,1037.24
2023-02-08T11:26:13.582Z,1037.23
2023-02-08T11:27:13.952Z,1037.18
2023-02-08T11:28:13.158Z,1037.20
2023-02-08T11:29:13.429Z,1037.17
2023-02-08T11:30:13.570Z,1037.11
2023-02-08T11:31:14.113Z,1037.14
2023-02-08T11:32:13.078Z,1037.10
2023-02-08T11:33:13.442Z,1037.09
2023-02-08T11:34:13.817Z,1037.07
2023-02-08T11:35:14.483Z,1037.02
2023-02-08T11:36:13.470Z,1037.00
2023-02-08T11:37:13.613Z,1036.99
2023-02-08T11:38:18.607Z,1036.96
2023-02-08T11:39:13.760Z,1036.97
2023-02-08T11:40:13.805Z,1036.99
2023-02-08T11:41:13.641Z,1037.00
2023-02-08T11:42:13.764Z,1037.02
2023-02-08T11:43:13.966Z,1036.98
2023-02-08T11:44:13.095Z,1037.04
2023-02-08T11:45:13.408Z,1037.01
2023-02-08T11:46:13.438Z,1037.01
2023-02-08T11:47:13.862Z,1036.98
2023-02-08T11:48:13.982Z,1036.96
2023-02-08T11:49:13.049Z,1036.94
2023-02-08T11:50:12.976Z,1037.00
2023-02-08T11:51:13.208Z,1036.98
2023-02-08T11:52:13.191Z,1036.98
2023-02-08T11:53:14.038Z,1037.01
2023-02-08T11:54:13.083Z,1036.99
2023-02-08T11:55:13.412Z,1036.98
2023-02-08T11:56:13.468Z,1036.98
2023-02-08T11:57:13.690Z,1036.95
2023-02-08T11:58:13.965Z,1036.97
2023-02-08T11:59:12.960Z,1037.00
2023-02-08T12:00:20.416Z,1037.01
2023-02-08T12:01:13.493Z,1036.99
2023-02-08T12:02:13.507Z,1037.01
2023-02-08T12:03:13.573Z,1036.96
2023-02-08T12:04:13.907Z,1036.95
2023-02-08T12:05:12.989Z,1036.91
2023-02-08T12:06:13.088Z,1036.86
2023-02-08T12:07:13.670Z,1036.93
2023-02-08T12:08:13.933Z,1036.91
2023-02-08T12:09:12.917Z,1036.84
2023-02-08T12:10:12.748Z,1036.87
2023-02-08T12:11:13.841Z,1036.86
2023-02-08T12:12:13.874Z,1036.84
2023-02-08T12:13:13.977Z,1036.85